sensor_id;sensor_type;location;lat;lon;timestamp;P1;durP1;ratioP1;P2;durP2;ratioP2
54641;SDS011;40536;53.194;5.728;2022-10-15T00:00:49;352.30;;;324.58;;
54641;SDS011;40536;53.194;5.728;2022-10-15T00:03:15;350.35;;;322.02;;
54641;SDS011;40536;53.194;5.728;2022-10-15T00:05:40;347.88;;;321.20;;
54641;SDS011;40536;53.194;5.728;2022-10-15T00:08:07;349.15;;;323.83;;
54641;SDS011;40536;53.194;5.728;2022-10-15T00:10:34;356.77;;;328.63;;
54641;SDS011;40536;53.194;5.728;2022-10-15T00:13:00;346.10;;;318.33;;
54641;SDS011;40536;53.194;5.728;2022-10-15T00:15:26;330.25;;;306.00;;
54641;SDS011;40536;53.194;5.728;2022-10-15T00:17:52;339.45;;;314.27;;
54641;SDS011;40536;53.194;5.728;2022-10-15T00:20:18;328.38;;;302.75;;
54641;SDS011;40536;53.194;5.728;2022-10-15T00:22:43;329.20;;;303.95;;
54641;SDS011;40536;53.194;5.728;2022-10-15T00:25:09;336.45;;;310.63;;
54641;SDS011;40536;53.194;5.728;2022-10-15T00:27:35;337.85;;;313.00;;
54641;SDS011;40536;53.194;5.728;2022-10-15T00:30:02;351.85;;;324.20;;
54641;SDS011;40536;53.194;5.728;2022-10-15T00:32:29;347.80;;;321.20;;
54641;SDS011;40536;53.194;5.728;2022-10-15T00:34:55;341.90;;;316.15;;
54641;SDS011;40536;53.194;5.728;2022-10-15T00:37:21;373.15;;;342.40;;
54641;SDS011;40536;53.194;5.728;2022-10-15T00:39:47;364.92;;;336.17;;
54641;SDS011;40536;53.194;5.728;2022-10-15T00:42:13;355.42;;;326.27;;
54641;SDS011;40536;53.194;5.728;2022-10-15T00:47:43;350.08;;;322.23;;
54641;SDS011;40536;53.194;5.728;2022-10-15T00:50:14;359.95;;;330.35;;
54641;SDS011;40536;53.194;5.728;2022-10-15T00:52:45;351.67;;;325.50;;
54641;SDS011;40536;53.194;5.728;2022-10-15T00:57:44;369.08;;;340.85;;
54641;SDS011;40536;53.194;5.728;2022-10-15T01:00:13;371.17;;;342.40;;
54641;SDS011;40536;53.194;5.728;2022-10-15T01:02:40;357.13;;;328.75;;
54641;SDS011;40536;53.194;5.728;2022-10-15T01:05:06;348.13;;;322.00;;
54641;SDS011;40536;53.194;5.728;2022-10-15T01:07:33;364.73;;;336.17;;
54641;SDS011;40536;53.194;5.728;2022-10-15T01:09:59;352.88;;;326.63;;
54641;SDS011;40536;53.194;5.728;2022-10-15T01:12:27;351.80;;;325.52;;
54641;SDS011;40536;53.194;5.728;2022-10-15T01:41:46;334.27;;;311.27;;
54641;SDS011;40536;53.194;5.728;2022-10-15T01:44:24;316.30;;;294.05;;
54641;SDS011;40536;53.194;5.728;2022-10-15T01:47:11;335.30;;;312.00;;
54641;SDS011;40536;53.194;5.728;2022-10-15T01:49:44;336.10;;;312.08;;
54641;SDS011;40536;53.194;5.728;2022-10-15T01:52:13;338.77;;;314.25;;
54641;SDS011;40536;53.194;5.728;2022-10-15T01:54:43;321.58;;;299.25;;
54641;SDS011;40536;53.194;5.728;2022-10-15T01:57:11;327.30;;;305.40;;
54641;SDS011;40536;53.194;5.728;2022-10-15T01:59:37;359.35;;;333.52;;
54641;SDS011;40536;53.194;5.728;2022-10-15T02:02:04;342.55;;;318.58;;
54641;SDS011;40536;53.194;5.728;2022-10-15T02:04:32;354.83;;;330.63;;
54641;SDS011;40536;53.194;5.728;2022-10-15T02:07:06;355.45;;;330.25;;
54641;SDS011;40536;53.194;5.728;2022-10-15T02:09:42;339.02;;;316.90;;
54641;SDS011;40536;53.194;5.728;2022-10-15T02:23:14;325.60;;;303.77;;
54641;SDS011;40536;53.194;5.728;2022-10-15T02:25:44;357.90;;;332.35;;
54641;SDS011;40536;53.194;5.728;2022-10-15T02:28:12;341.73;;;317.80;;
54641;SDS011;40536;53.194;5.728;2022-10-15T02:30:42;353.73;;;327.65;;
54641;SDS011;40536;53.194;5.728;2022-10-15T02:33:10;334.25;;;310.05;;
54641;SDS011;40536;53.194;5.728;2022-10-15T02:35:37;330.20;;;307.73;;
54641;SDS011;40536;53.194;5.728;2022-10-15T02:38:04;335.77;;;312.17;;
54641;SDS011;40536;53.194;5.728;2022-10-15T02:40:33;328.40;;;305.83;;
54641;SDS011;40536;53.194;5.728;2022-10-15T02:43:03;341.48;;;316.90;;
54641;SDS011;40536;53.194;5.728;2022-10-15T02:45:30;316.70;;;295.00;;
54641;SDS011;40536;53.194;5.728;2022-10-15T02:47:56;349.15;;;324.20;;
54641;SDS011;40536;53.194;5.728;2022-10-15T02:50:22;349.35;;;323.75;;
54641;SDS011;40536;53.194;5.728;2022-10-15T02:52:47;338.35;;;314.08;;
54641;SDS011;40536;53.194;5.728;2022-10-15T02:55:13;320.90;;;297.67;;
54641;SDS011;40536;53.194;5.728;2022-10-15T02:57:39;342.75;;;318.27;;
54641;SDS011;40536;53.194;5.728;2022-10-15T03:00:05;342.15;;;315.90;;
54641;SDS011;40536;53.194;5.728;2022-10-15T03:02:31;335.67;;;311.33;;
54641;SDS011;40536;53.194;5.728;2022-10-15T03:04:57;336.52;;;312.92;;
54641;SDS011;40536;53.194;5.728;2022-10-15T03:07:22;331.58;;;306.23;;
54641;SDS011;40536;53.194;5.728;2022-10-15T03:09:48;337.63;;;314.13;;
54641;SDS011;40536;53.194;5.728;2022-10-15T03:12:13;326.25;;;302.80;;
54641;SDS011;40536;53.194;5.728;2022-10-15T03:14:39;332.48;;;309.20;;
54641;SDS011;40536;53.194;5.728;2022-10-15T03:17:05;335.92;;;312.65;;
54641;SDS011;40536;53.194;5.728;2022-10-15T03:19:30;359.50;;;333.85;;
54641;SDS011;40536;53.194;5.728;2022-10-15T03:21:56;360.15;;;334.95;;
54641;SDS011;40536;53.194;5.728;2022-10-15T03:24:22;362.25;;;336.90;;
54641;SDS011;40536;53.194;5.728;2022-10-15T03:26:47;382.85;;;354.90;;
54641;SDS011;40536;53.194;5.728;2022-10-15T03:29:13;362.38;;;337.38;;
54641;SDS011;40536;53.194;5.728;2022-10-15T03:31:39;370.98;;;344.45;;
54641;SDS011;40536;53.194;5.728;2022-10-15T03:34:04;355.95;;;331.00;;
54641;SDS011;40536;53.194;5.728;2022-10-15T03:36:30;353.52;;;329.23;;
54641;SDS011;40536;53.194;5.728;2022-10-15T03:38:56;363.58;;;336.42;;
54641;SDS011;40536;53.194;5.728;2022-10-15T03:41:21;373.92;;;347.38;;
54641;SDS011;40536;53.194;5.728;2022-10-15T03:43:47;355.50;;;329.95;;
54641;SDS011;40536;53.194;5.728;2022-10-15T03:46:13;364.25;;;339.15;;
54641;SDS011;40536;53.194;5.728;2022-10-15T03:48:39;380.58;;;354.40;;
54641;SDS011;40536;53.194;5.728;2022-10-15T03:51:05;346.35;;;322.38;;
54641;SDS011;40536;53.194;5.728;2022-10-15T03:53:31;358.60;;;333.67;;
54641;SDS011;40536;53.194;5.728;2022-10-15T03:56:01;347.77;;;323.77;;
54641;SDS011;40536;53.194;5.728;2022-10-15T03:58:30;372.63;;;346.45;;
54641;SDS011;40536;53.194;5.728;2022-10-15T04:00:56;372.25;;;346.10;;
54641;SDS011;40536;53.194;5.728;2022-10-15T04:03:22;378.77;;;351.38;;
54641;SDS011;40536;53.194;5.728;2022-10-15T04:05:51;385.92;;;358.38;;
54641;SDS011;40536;53.194;5.728;2022-10-15T04:08:17;390.33;;;359.95;;
54641;SDS011;40536;53.194;5.728;2022-10-15T04:10:43;381.05;;;354.13;;
54641;SDS011;40536;53.194;5.728;2022-10-15T04:13:09;368.00;;;340.13;;
54641;SDS011;40536;53.194;5.728;2022-10-15T04:15:38;365.85;;;338.90;;
54641;SDS011;40536;53.194;5.728;2022-10-15T04:18:03;359.83;;;331.85;;
54641;SDS011;40536;53.194;5.728;2022-10-15T04:20:29;365.67;;;338.77;;
54641;SDS011;40536;53.194;5.728;2022-10-15T04:22:55;370.38;;;343.00;;
54641;SDS011;40536;53.194;5.728;2022-10-15T04:25:20;339.25;;;314.25;;
54641;SDS011;40536;53.194;5.728;2022-10-15T04:27:46;345.40;;;320.02;;
54641;SDS011;40536;53.194;5.728;2022-10-15T04:30:12;342.73;;;316.98;;
54641;SDS011;40536;53.194;5.728;2022-10-15T04:32:38;346.27;;;319.85;;
54641;SDS011;40536;53.194;5.728;2022-10-15T04:35:04;345.30;;;319.33;;
54641;SDS011;40536;53.194;5.728;2022-10-15T04:37:33;349.83;;;323.65;;
54641;SDS011;40536;53.194;5.728;2022-10-15T04:39:59;346.50;;;321.63;;
54641;SDS011;40536;53.194;5.728;2022-10-15T04:42:27;343.70;;;318.23;;
54641;SDS011;40536;53.194;5.728;2022-10-15T04:44:56;338.50;;;313.65;;
54641;SDS011;40536;53.194;5.728;2022-10-15T04:47:21;332.98;;;308.45;;
54641;SDS011;40536;53.194;5.728;2022-10-15T04:49:47;347.92;;;322.05;;
54641;SDS011;40536;53.194;5.728;2022-10-15T04:52:13;351.08;;;325.15;;
54641;SDS011;40536;53.194;5.728;2022-10-15T04:54:39;361.52;;;335.33;;
54641;SDS011;40536;53.194;5.728;2022-10-15T04:57:05;346.52;;;320.90;;
54641;SDS011;40536;53.194;5.728;2022-10-15T04:59:30;350.75;;;324.13;;
54641;SDS011;40536;53.194;5.728;2022-10-15T05:01:56;367.25;;;337.25;;
54641;SDS011;40536;53.194;5.728;2022-10-15T05:04:22;339.92;;;315.02;;
54641;SDS011;40536;53.194;5.728;2022-10-15T05:06:48;354.65;;;328.40;;
54641;SDS011;40536;53.194;5.728;2022-10-15T05:09:13;331.67;;;305.45;;
54641;SDS011;40536;53.194;5.728;2022-10-15T05:11:39;369.20;;;339.60;;
54641;SDS011;40536;53.194;5.728;2022-10-15T05:14:05;371.40;;;340.77;;
54641;SDS011;40536;53.194;5.728;2022-10-15T05:16:31;351.52;;;324.30;;
54641;SDS011;40536;53.194;5.728;2022-10-15T05:18:58;376.52;;;347.25;;
54641;SDS011;40536;53.194;5.728;2022-10-15T05:21:28;368.63;;;338.17;;
54641;SDS011;40536;53.194;5.728;2022-10-15T05:23:55;368.55;;;337.42;;
54641;SDS011;40536;53.194;5.728;2022-10-15T05:26:22;337.65;;;309.98;;
54641;SDS011;40536;53.194;5.728;2022-10-15T05:28:49;371.70;;;340.65;;
54641;SDS011;40536;53.194;5.728;2022-10-15T05:31:17;342.23;;;314.00;;
54641;SDS011;40536;53.194;5.728;2022-10-15T05:33:44;352.02;;;324.27;;
54641;SDS011;40536;53.194;5.728;2022-10-15T05:36:14;333.33;;;306.40;;
54641;SDS011;40536;53.194;5.728;2022-10-15T05:38:41;343.02;;;313.95;;
54641;SDS011;40536;53.194;5.728;2022-10-15T05:41:08;324.45;;;297.63;;
54641;SDS011;40536;53.194;5.728;2022-10-15T05:43:34;333.88;;;307.27;;
54641;SDS011;40536;53.194;5.728;2022-10-15T05:45:59;331.20;;;304.25;;
54641;SDS011;40536;53.194;5.728;2022-10-15T05:48:25;348.90;;;322.10;;
54641;SDS011;40536;53.194;5.728;2022-10-15T05:50:51;360.75;;;332.60;;
54641;SDS011;40536;53.194;5.728;2022-10-15T05:53:17;367.67;;;339.65;;
54641;SDS011;40536;53.194;5.728;2022-10-15T05:55:42;369.83;;;342.85;;
54641;SDS011;40536;53.194;5.728;2022-10-15T05:58:08;360.77;;;332.77;;
54641;SDS011;40536;53.194;5.728;2022-10-15T06:00:34;355.20;;;327.33;;
54641;SDS011;40536;53.194;5.728;2022-10-15T06:03:00;337.42;;;313.42;;
54641;SDS011;40536;53.194;5.728;2022-10-15T06:05:26;336.55;;;310.70;;
54641;SDS011;40536;53.194;5.728;2022-10-15T06:07:52;342.48;;;316.08;;
54641;SDS011;40536;53.194;5.728;2022-10-15T06:10:17;343.55;;;318.50;;
54641;SDS011;40536;53.194;5.728;2022-10-15T06:12:47;341.48;;;316.25;;
54641;SDS011;40536;53.194;5.728;2022-10-15T06:15:16;346.77;;;321.08;;
54641;SDS011;40536;53.194;5.728;2022-10-15T06:17:43;340.92;;;312.08;;
54641;SDS011;40536;53.194;5.728;2022-10-15T06:20:09;356.27;;;329.38;;
54641;SDS011;40536;53.194;5.728;2022-10-15T06:22:35;374.83;;;347.20;;
54641;SDS011;40536;53.194;5.728;2022-10-15T06:25:01;375.40;;;347.92;;
54641;SDS011;40536;53.194;5.728;2022-10-15T06:27:27;395.35;;;365.10;;
54641;SDS011;40536;53.194;5.728;2022-10-15T06:29:52;401.08;;;372.48;;
54641;SDS011;40536;53.194;5.728;2022-10-15T06:32:18;426.90;;;395.38;;
54641;SDS011;40536;53.194;5.728;2022-10-15T06:34:44;409.25;;;377.50;;
54641;SDS011;40536;53.194;5.728;2022-10-15T06:37:09;407.58;;;376.08;;
54641;SDS011;40536;53.194;5.728;2022-10-15T06:39:35;395.00;;;365.63;;
54641;SDS011;40536;53.194;5.728;2022-10-15T06:42:00;391.13;;;361.23;;
54641;SDS011;40536;53.194;5.728;2022-10-15T06:44:26;362.15;;;335.35;;
54641;SDS011;40536;53.194;5.728;2022-10-15T06:46:52;370.25;;;342.70;;
54641;SDS011;40536;53.194;5.728;2022-10-15T06:49:17;348.90;;;321.90;;
54641;SDS011;40536;53.194;5.728;2022-10-15T06:51:43;363.00;;;336.58;;
54641;SDS011;40536;53.194;5.728;2022-10-15T06:54:09;354.52;;;327.33;;
54641;SDS011;40536;53.194;5.728;2022-10-15T06:56:34;381.45;;;353.15;;
54641;SDS011;40536;53.194;5.728;2022-10-15T06:59:00;392.45;;;363.80;;
54641;SDS011;40536;53.194;5.728;2022-10-15T07:01:25;433.27;;;399.38;;
54641;SDS011;40536;53.194;5.728;2022-10-15T07:03:52;412.50;;;382.83;;
54641;SDS011;40536;53.194;5.728;2022-10-15T07:06:18;415.90;;;385.95;;
54641;SDS011;40536;53.194;5.728;2022-10-15T07:08:43;409.70;;;380.30;;
54641;SDS011;40536;53.194;5.728;2022-10-15T07:11:09;402.45;;;373.05;;
54641;SDS011;40536;53.194;5.728;2022-10-15T07:13:36;441.75;;;405.05;;
54641;SDS011;40536;53.194;5.728;2022-10-15T07:16:09;433.55;;;401.90;;
54641;SDS011;40536;53.194;5.728;2022-10-15T07:18:35;449.70;;;413.77;;
54641;SDS011;40536;53.194;5.728;2022-10-15T07:21:02;441.90;;;408.65;;
54641;SDS011;40536;53.194;5.728;2022-10-15T07:23:30;445.70;;;411.88;;
54641;SDS011;40536;53.194;5.728;2022-10-15T07:25:56;454.30;;;418.58;;
54641;SDS011;40536;53.194;5.728;2022-10-15T07:28:22;457.77;;;424.23;;
54641;SDS011;40536;53.194;5.728;2022-10-15T07:30:48;433.63;;;400.70;;
54641;SDS011;40536;53.194;5.728;2022-10-15T07:33:14;409.98;;;377.45;;
54641;SDS011;40536;53.194;5.728;2022-10-15T07:35:40;413.13;;;379.67;;
54641;SDS011;40536;53.194;5.728;2022-10-15T07:38:05;436.58;;;399.98;;
54641;SDS011;40536;53.194;5.728;2022-10-15T07:40:31;407.92;;;377.70;;
54641;SDS011;40536;53.194;5.728;2022-10-15T07:42:57;444.63;;;408.88;;
54641;SDS011;40536;53.194;5.728;2022-10-15T07:45:23;370.98;;;342.02;;
54641;SDS011;40536;53.194;5.728;2022-10-15T07:47:50;367.20;;;337.23;;
54641;SDS011;40536;53.194;5.728;2022-10-15T07:50:16;356.83;;;329.60;;
54641;SDS011;40536;53.194;5.728;2022-10-15T07:52:43;364.33;;;336.25;;
54641;SDS011;40536;53.194;5.728;2022-10-15T07:55:09;350.95;;;326.10;;
54641;SDS011;40536;53.194;5.728;2022-10-15T07:57:35;416.23;;;381.33;;
54641;SDS011;40536;53.194;5.728;2022-10-15T08:00:01;380.02;;;349.45;;
54641;SDS011;40536;53.194;5.728;2022-10-15T08:02:27;367.95;;;339.42;;
54641;SDS011;40536;53.194;5.728;2022-10-15T08:04:53;345.30;;;317.48;;
54641;SDS011;40536;53.194;5.728;2022-10-15T08:07:18;384.42;;;352.75;;
54641;SDS011;40536;53.194;5.728;2022-10-15T08:09:47;378.77;;;348.55;;
54641;SDS011;40536;53.194;5.728;2022-10-15T08:12:13;362.42;;;335.60;;
54641;SDS011;40536;53.194;5.728;2022-10-15T08:14:38;373.58;;;343.75;;
54641;SDS011;40536;53.194;5.728;2022-10-15T08:17:04;350.63;;;324.42;;
54641;SDS011;40536;53.194;5.728;2022-10-15T08:19:30;394.80;;;365.73;;
54641;SDS011;40536;53.194;5.728;2022-10-15T08:21:57;396.02;;;366.67;;
54641;SDS011;40536;53.194;5.728;2022-10-15T08:24:23;362.08;;;331.95;;
54641;SDS011;40536;53.194;5.728;2022-10-15T08:26:49;371.25;;;343.23;;
54641;SDS011;40536;53.194;5.728;2022-10-15T08:29:14;318.90;;;295.48;;
54641;SDS011;40536;53.194;5.728;2022-10-15T08:31:41;368.75;;;337.40;;
54641;SDS011;40536;53.194;5.728;2022-10-15T08:34:07;341.58;;;316.95;;
54641;SDS011;40536;53.194;5.728;2022-10-15T08:36:32;347.42;;;322.48;;
54641;SDS011;40536;53.194;5.728;2022-10-15T08:38:58;353.25;;;326.40;;
54641;SDS011;40536;53.194;5.728;2022-10-15T08:41:31;325.25;;;303.17;;
54641;SDS011;40536;53.194;5.728;2022-10-15T08:44:11;322.53;;;298.47;;
54641;SDS011;40536;53.194;5.728;2022-10-15T08:46:50;322.98;;;302.38;;
54641;SDS011;40536;53.194;5.728;2022-10-15T08:49:24;318.67;;;298.08;;
54641;SDS011;40536;53.194;5.728;2022-10-15T08:52:39;386.83;;;361.75;;
54641;SDS011;40536;53.194;5.728;2022-10-15T08:55:13;455.60;;;425.73;;
54641;SDS011;40536;53.194;5.728;2022-10-15T09:00:34;489.20;;;455.60;;
54641;SDS011;40536;53.194;5.728;2022-10-15T09:08:39;315.05;;;295.48;;
54641;SDS011;40536;53.194;5.728;2022-10-15T09:14:10;318.13;;;298.88;;
54641;SDS011;40536;53.194;5.728;2022-10-15T09:16:39;317.60;;;298.75;;
54641;SDS011;40536;53.194;5.728;2022-10-15T09:19:12;274.55;;;258.30;;
54641;SDS011;40536;53.194;5.728;2022-10-15T09:21:43;236.43;;;222.35;;
54641;SDS011;40536;53.194;5.728;2022-10-15T09:24:12;236.25;;;221.70;;
54641;SDS011;40536;53.194;5.728;2022-10-15T09:29:38;241.77;;;226.63;;
54641;SDS011;40536;53.194;5.728;2022-10-15T09:32:12;233.97;;;219.70;;
54641;SDS011;40536;53.194;5.728;2022-10-15T09:34:51;213.95;;;200.98;;
54641;SDS011;40536;53.194;5.728;2022-10-15T09:37:31;229.52;;;215.52;;
54641;SDS011;40536;53.194;5.728;2022-10-15T09:43:04;192.85;;;180.30;;
54641;SDS011;40536;53.194;5.728;2022-10-15T09:48:00;147.80;;;137.63;;
54641;SDS011;40536;53.194;5.728;2022-10-15T09:50:40;180.63;;;165.50;;
54641;SDS011;40536;53.194;5.728;2022-10-15T09:53:17;168.60;;;157.07;;
54641;SDS011;40536;53.194;5.728;2022-10-15T09:55:53;181.10;;;168.70;;
54641;SDS011;40536;53.194;5.728;2022-10-15T09:58:32;181.20;;;168.82;;
54641;SDS011;40536;53.194;5.728;2022-10-15T10:01:04;171.60;;;160.18;;
54641;SDS011;40536;53.194;5.728;2022-10-15T10:03:32;277.40;;;260.50;;
54641;SDS011;40536;53.194;5.728;2022-10-15T10:08:31;228.05;;;209.93;;
54641;SDS011;40536;53.194;5.728;2022-10-15T10:11:10;200.43;;;188.50;;
54641;SDS011;40536;53.194;5.728;2022-10-15T10:16:21;159.55;;;149.60;;
54641;SDS011;40536;53.194;5.728;2022-10-15T10:19:01;176.13;;;165.35;;
54641;SDS011;40536;53.194;5.728;2022-10-15T10:21:34;164.30;;;154.30;;
54641;SDS011;40536;53.194;5.728;2022-10-15T10:26:50;127.28;;;119.35;;
54641;SDS011;40536;53.194;5.728;2022-10-15T10:29:17;112.80;;;105.05;;
54641;SDS011;40536;53.194;5.728;2022-10-15T10:31:44;112.45;;;104.72;;
54641;SDS011;40536;53.194;5.728;2022-10-15T10:34:16;117.07;;;109.00;;
54641;SDS011;40536;53.194;5.728;2022-10-15T10:36:50;111.68;;;103.80;;
54641;SDS011;40536;53.194;5.728;2022-10-15T10:39:23;112.38;;;104.32;;
54641;SDS011;40536;53.194;5.728;2022-10-15T10:44:47;101.45;;;94.05;;
54641;SDS011;40536;53.194;5.728;2022-10-15T10:49:49;92.95;;;86.25;;
54641;SDS011;40536;53.194;5.728;2022-10-15T10:52:29;98.50;;;91.32;;
54641;SDS011;40536;53.194;5.728;2022-10-15T10:55:00;91.28;;;84.85;;
54641;SDS011;40536;53.194;5.728;2022-10-15T10:58:08;90.45;;;84.32;;
54641;SDS011;40536;53.194;5.728;2022-10-15T11:00:37;98.78;;;92.10;;
54641;SDS011;40536;53.194;5.728;2022-10-15T11:03:05;90.28;;;83.35;;
54641;SDS011;40536;53.194;5.728;2022-10-15T11:05:40;91.88;;;86.03;;
54641;SDS011;40536;53.194;5.728;2022-10-15T11:08:15;81.97;;;76.53;;
54641;SDS011;40536;53.194;5.728;2022-10-15T11:10:53;91.35;;;85.05;;
54641;SDS011;40536;53.194;5.728;2022-10-15T11:16:00;74.55;;;68.90;;
54641;SDS011;40536;53.194;5.728;2022-10-15T11:21:13;72.07;;;66.90;;
54641;SDS011;40536;53.194;5.728;2022-10-15T11:23:50;47.38;;;43.63;;
54641;SDS011;40536;53.194;5.728;2022-10-15T11:26:39;49.53;;;44.85;;
54641;SDS011;40536;53.194;5.728;2022-10-15T11:29:20;58.35;;;53.05;;
54641;SDS011;40536;53.194;5.728;2022-10-15T11:34:34;58.78;;;54.35;;
54641;SDS011;40536;53.194;5.728;2022-10-15T11:40:05;43.83;;;40.20;;
54641;SDS011;40536;53.194;5.728;2022-10-15T11:43:02;71.72;;;66.45;;
54641;SDS011;40536;53.194;5.728;2022-10-15T11:45:43;44.50;;;41.05;;
54641;SDS011;40536;53.194;5.728;2022-10-15T11:51:32;30.15;;;27.55;;
54641;SDS011;40536;53.194;5.728;2022-10-15T11:56:38;31.30;;;28.85;;
54641;SDS011;40536;53.194;5.728;2022-10-15T11:59:19;45.72;;;42.08;;
54641;SDS011;40536;53.194;5.728;2022-10-15T12:02:19;31.55;;;29.05;;
54641;SDS011;40536;53.194;5.728;2022-10-15T12:04:47;34.00;;;31.27;;
54641;SDS011;40536;53.194;5.728;2022-10-15T12:07:17;27.52;;;25.25;;
54641;SDS011;40536;53.194;5.728;2022-10-15T12:09:47;35.88;;;33.28;;
54641;SDS011;40536;53.194;5.728;2022-10-15T12:12:18;36.53;;;33.83;;
54641;SDS011;40536;53.194;5.728;2022-10-15T12:15:06;34.58;;;31.90;;
54641;SDS011;40536;53.194;5.728;2022-10-15T12:17:45;36.00;;;33.42;;
54641;SDS011;40536;53.194;5.728;2022-10-15T12:20:23;37.45;;;34.67;;
54641;SDS011;40536;53.194;5.728;2022-10-15T12:28:12;35.88;;;33.05;;
54641;SDS011;40536;53.194;5.728;2022-10-15T12:30:40;36.35;;;33.63;;
54641;SDS011;40536;53.194;5.728;2022-10-15T12:33:24;48.80;;;45.33;;
54641;SDS011;40536;53.194;5.728;2022-10-15T12:35:54;35.55;;;32.97;;
54641;SDS011;40536;53.194;5.728;2022-10-15T12:38:24;51.47;;;47.95;;
54641;SDS011;40536;53.194;5.728;2022-10-15T12:41:03;37.97;;;35.13;;
54641;SDS011;40536;53.194;5.728;2022-10-15T12:43:32;34.28;;;31.75;;
54641;SDS011;40536;53.194;5.728;2022-10-15T12:46:01;38.45;;;35.70;;
54641;SDS011;40536;53.194;5.728;2022-10-15T12:48:30;48.85;;;45.47;;
54641;SDS011;40536;53.194;5.728;2022-10-15T12:53:45;39.67;;;36.72;;
54641;SDS011;40536;53.194;5.728;2022-10-15T13:06:21;56.08;;;52.45;;
54641;SDS011;40536;53.194;5.728;2022-10-15T13:16:36;44.33;;;41.50;;
54641;SDS011;40536;53.194;5.728;2022-10-15T13:19:02;79.53;;;74.13;;
54641;SDS011;40536;53.194;5.728;2022-10-15T13:21:48;37.92;;;35.33;;
54641;SDS011;40536;53.194;5.728;2022-10-15T13:24:38;42.63;;;39.70;;
54641;SDS011;40536;53.194;5.728;2022-10-15T13:27:28;66.10;;;61.92;;
54641;SDS011;40536;53.194;5.728;2022-10-15T13:30:01;94.72;;;89.60;;
54641;SDS011;40536;53.194;5.728;2022-10-15T13:32:35;110.13;;;104.75;;
54641;SDS011;40536;53.194;5.728;2022-10-15T13:35:11;197.25;;;187.18;;
54641;SDS011;40536;53.194;5.728;2022-10-15T13:37:41;193.45;;;183.63;;
54641;SDS011;40536;53.194;5.728;2022-10-15T13:40:15;203.00;;;193.63;;
54641;SDS011;40536;53.194;5.728;2022-10-15T13:45:26;240.25;;;229.20;;
54641;SDS011;40536;53.194;5.728;2022-10-15T13:47:53;267.17;;;254.68;;
54641;SDS011;40536;53.194;5.728;2022-10-15T13:50:27;349.27;;;329.92;;
54641;SDS011;40536;53.194;5.728;2022-10-15T13:55:48;189.23;;;178.50;;
54641;SDS011;40536;53.194;5.728;2022-10-15T13:58:19;228.75;;;215.70;;
54641;SDS011;40536;53.194;5.728;2022-10-15T14:03:44;321.17;;;301.88;;
54641;SDS011;40536;53.194;5.728;2022-10-15T14:08:39;255.35;;;242.10;;
54641;SDS011;40536;53.194;5.728;2022-10-15T14:11:05;280.67;;;265.63;;
54641;SDS011;40536;53.194;5.728;2022-10-15T14:13:30;276.10;;;262.50;;
54641;SDS011;40536;53.194;5.728;2022-10-15T14:18:50;339.40;;;322.45;;
54641;SDS011;40536;53.194;5.728;2022-10-15T14:21:20;335.52;;;319.20;;
54641;SDS011;40536;53.194;5.728;2022-10-15T14:24:00;354.40;;;337.33;;
54641;SDS011;40536;53.194;5.728;2022-10-15T14:26:29;320.30;;;305.38;;
54641;SDS011;40536;53.194;5.728;2022-10-15T14:28:56;307.42;;;293.27;;
54641;SDS011;40536;53.194;5.728;2022-10-15T14:31:27;332.38;;;314.55;;
54641;SDS011;40536;53.194;5.728;2022-10-15T14:33:55;278.98;;;266.08;;
54641;SDS011;40536;53.194;5.728;2022-10-15T14:36:22;264.10;;;250.32;;
54641;SDS011;40536;53.194;5.728;2022-10-15T14:38:50;215.90;;;205.40;;
54641;SDS011;40536;53.194;5.728;2022-10-15T14:41:20;216.85;;;205.38;;
54641;SDS011;40536;53.194;5.728;2022-10-15T14:44:00;167.32;;;158.95;;
54641;SDS011;40536;53.194;5.728;2022-10-15T14:46:39;180.55;;;171.65;;
54641;SDS011;40536;53.194;5.728;2022-10-15T14:49:15;144.15;;;136.75;;
54641;SDS011;40536;53.194;5.728;2022-10-15T14:51:41;179.73;;;171.05;;
54641;SDS011;40536;53.194;5.728;2022-10-15T14:54:10;217.57;;;207.32;;
54641;SDS011;40536;53.194;5.728;2022-10-15T14:56:45;174.63;;;166.35;;
54641;SDS011;40536;53.194;5.728;2022-10-15T14:59:12;205.95;;;194.75;;
54641;SDS011;40536;53.194;5.728;2022-10-15T15:01:50;188.07;;;179.00;;
54641;SDS011;40536;53.194;5.728;2022-10-15T15:04:39;167.07;;;157.45;;
54641;SDS011;40536;53.194;5.728;2022-10-15T15:07:17;125.68;;;119.05;;
54641;SDS011;40536;53.194;5.728;2022-10-15T15:09:48;75.38;;;70.57;;
54641;SDS011;40536;53.194;5.728;2022-10-15T15:12:18;87.45;;;82.82;;
54641;SDS011;40536;53.194;5.728;2022-10-15T15:14:47;113.22;;;107.60;;
54641;SDS011;40536;53.194;5.728;2022-10-15T15:17:15;160.85;;;151.45;;
54641;SDS011;40536;53.194;5.728;2022-10-15T15:19:42;114.95;;;108.72;;
54641;SDS011;40536;53.194;5.728;2022-10-15T15:22:14;102.07;;;96.88;;
54641;SDS011;40536;53.194;5.728;2022-10-15T15:24:44;115.68;;;109.68;;
54641;SDS011;40536;53.194;5.728;2022-10-15T15:27:31;107.00;;;101.50;;
54641;SDS011;40536;53.194;5.728;2022-10-15T15:30:01;138.93;;;131.40;;
54641;SDS011;40536;53.194;5.728;2022-10-15T15:32:28;104.35;;;98.70;;
54641;SDS011;40536;53.194;5.728;2022-10-15T15:34:54;99.43;;;94.38;;
54641;SDS011;40536;53.194;5.728;2022-10-15T15:37:22;90.72;;;86.03;;
54641;SDS011;40536;53.194;5.728;2022-10-15T15:39:49;79.47;;;74.68;;
54641;SDS011;40536;53.194;5.728;2022-10-15T15:42:19;107.90;;;102.28;;
54641;SDS011;40536;53.194;5.728;2022-10-15T15:44:47;106.03;;;100.30;;
54641;SDS011;40536;53.194;5.728;2022-10-15T15:47:14;116.32;;;109.90;;
54641;SDS011;40536;53.194;5.728;2022-10-15T15:49:40;144.35;;;135.90;;
54641;SDS011;40536;53.194;5.728;2022-10-15T15:52:06;34.38;;;32.28;;
54641;SDS011;40536;53.194;5.728;2022-10-15T15:54:36;71.45;;;66.82;;
54641;SDS011;40536;53.194;5.728;2022-10-15T15:57:01;65.05;;;61.45;;
54641;SDS011;40536;53.194;5.728;2022-10-15T15:59:27;47.70;;;44.88;;
54641;SDS011;40536;53.194;5.728;2022-10-15T16:01:53;30.13;;;28.38;;
54641;SDS011;40536;53.194;5.728;2022-10-15T16:04:19;46.08;;;43.30;;
54641;SDS011;40536;53.194;5.728;2022-10-15T16:06:45;53.42;;;50.58;;
54641;SDS011;40536;53.194;5.728;2022-10-15T16:09:13;43.25;;;40.65;;
54641;SDS011;40536;53.194;5.728;2022-10-15T16:11:40;113.35;;;107.60;;
54641;SDS011;40536;53.194;5.728;2022-10-15T16:14:05;62.22;;;59.03;;
54641;SDS011;40536;53.194;5.728;2022-10-15T16:16:31;62.60;;;59.30;;
54641;SDS011;40536;53.194;5.728;2022-10-15T16:18:57;116.38;;;110.63;;
54641;SDS011;40536;53.194;5.728;2022-10-15T16:21:23;114.70;;;108.82;;
54641;SDS011;40536;53.194;5.728;2022-10-15T16:23:50;101.47;;;96.35;;
54641;SDS011;40536;53.194;5.728;2022-10-15T16:26:16;100.80;;;95.93;;